Aviation Digital Data Service (ADDS)

Output produced by METARs form (0432 UTC 19 August 2019)
found at http://www.aviationweather.gov/metar/data/
 
Forecast for: UTSB (BUKHARA , UZ)
Text: TAF UTSB 182300Z 1900/1924 36010KT 7000 NSC TX35/1910Z
Forecast period: 0000 UTC 19 August 2019 to 0000 UTC 20 August 2019
Forecast type: FROM: standard forecast or significant change
Winds: from the N (360 degrees) at 12 MPH (10 knots; 5.1 m/s)
Visibility: 4 miles (7 km)
Ceiling: unknown
Clouds: missing
Weather: no significant weather forecast for this period
Text: TEMPO 1900/1905 VRB03KT
Forecast period: 0000 to 0500 UTC 19 August 2019
Forecast type: TEMPORARY: The following changes expected for less than half the time period
Winds: variable direction winds at 3 MPH (3 knots; 1.5 m/s)
Visibility: missing
Ceiling: unknown
Clouds: missing
Weather: no significant weather forecast for this period
Text: TEMPO 1905/1912 01012G22KT
Forecast period: 0500 to 1200 UTC 19 August 2019
Forecast type: TEMPORARY: The following changes expected for less than half the time period
Winds: from the N (10 degrees) at 14 MPH (12 knots; 6.2 m/s)
gusting to 25 MPH (22 knots; 11.3 m/s)
Visibility: missing
Ceiling: unknown
Clouds: missing
Weather: no significant weather forecast for this period